Aviation Digital Data Service (ADDS)

Output produced by METARs form (0405 UTC 11 December 2017)
found at http://www.aviationweather.gov/adds/metars/
 
KHBG 110353Z AUTO 15003KT 10SM CLR 00/00 A3034 RMK AO2 SLP274 T00000000 $
KHBG 110253Z AUTO 00000KT 10SM CLR 02/01 A3033 RMK AO2 SLP271 T00170011 50006 $
KHBG 110153Z AUTO 00000KT 10SM CLR 03/02 A3033 RMK AO2 SLP272 T00280022 $
KHBG 110053Z AUTO 00000KT 10SM CLR 04/03 A3033 RMK AO2 SLP271 T00390033 $
KHBG 102353Z AUTO 00000KT 10SM CLR 06/04 A3031 RMK AO2 SLP265 T00610039 10139 20061 55002 $
KHBG 102253Z AUTO 00000KT 10SM CLR 10/02 A3031 RMK AO2 SLP263 T01000022 $
KHBG 102153Z AUTO 25005KT 10SM CLR 13/M01 A3031 RMK AO2 SLP265 T01331006 $
KHBG 102053Z AUTO 29006KT 10SM CLR 13/00 A3032 RMK AO2 SLP266 T01330000 56022 $
KHBG 101953Z AUTO VRB03KT 10SM CLR 13/00 A3033 RMK AO2 SLP269 T01280000 $
KHBG 101853Z AUTO 23005KT 10SM CLR 12/M01 A3035 RMK AO2 SLP276 T01171006 $
KHBG 101753Z AUTO 00000KT 10SM CLR 11/01 A3038 RMK AO2 SLP288 T01110006 10111 21028 58010 $
KHBG 101653Z AUTO 11003KT 10SM CLR 09/02 A3040 RMK AO2 SLP296 T00890017 $
KHBG 101553Z AUTO 00000KT 10SM CLR 06/03 A3042 RMK AO2 SLP303 T00560028 $
KHBG 101453Z AUTO 00000KT 10SM CLR 02/01 A3041 RMK AO2 SLP300 T00170011 51016 $
KHBG 101353Z AUTO 00000KT 10SM CLR M02/M02 A3040 RMK AO2 SLP296 T10171017 $
KHBG 101311Z AUTO 00000KT 10SM SCT001 M03/M03 A3039 RMK AO2 T10281028 $
KHBG 101253Z AUTO 00000KT 10SM OVC001 M03/M03 A3039 RMK AO2 SLP291 T10281028 $
KHBG 101153Z AUTO 00000KT 10SM BKN002 M03/M03 A3037 RMK AO2 SLP284 T10281028 11011 21028 53004 $
KHBG 101151Z AUTO 00000KT 10SM BKN002 M03/M03 A3037 RMK AO2 $
KHBG 101142Z AUTO 00000KT 10SM SCT002 M03/M03 A3037 RMK AO2 T10281028 $
KHBG 101053Z AUTO 00000KT 10SM CLR M02/M03 A3035 RMK AO2 SLP278 T10221028 $
KHBG 100953Z AUTO 00000KT 10SM CLR M02/M03 A3035 RMK AO2 SLP279 T10221028 $
KHBG 100853Z AUTO 00000KT 10SM CLR M02/M02 A3035 RMK AO2 SLP277 T10221022 53010 $
KHBG 100753Z AUTO 00000KT 10SM CLR M01/M02 A3033 RMK AO2 SLP272 T10111017 $
KHBG 100653Z AUTO 00000KT 10SM CLR M01/M01 A3033 RMK AO2 SLP269 T10111011 $
KHBG 100553Z AUTO 00000KT 10SM CLR M01/M01 A3032 RMK AO2 SLP267 T10111011 10028 21011 400781039 53017 $
KHBG 100453Z AUTO 00000KT 10SM CLR M01/M01 A3030 RMK AO2 SLP260 T10061011 $
KHBG 100353Z AUTO 00000KT 10SM CLR M01/M01 A3028 RMK AO2 SLP254 T10061006 $
KHBG 100253Z AUTO 00000KT 10SM CLR 00/00 A3027 RMK AO2 SLP250 T00000000 51026 $
KHBG 100153Z AUTO 00000KT 10SM CLR 01/01 A3025 RMK AO2 SLP245 T00060006 $
KHBG 100053Z AUTO 00000KT 10SM CLR 01/01 A3023 RMK AO2 SLP236 T00060006 $
KHBG 092353Z AUTO 00000KT 10SM CLR 03/02 A3019 RMK AO2 SLP224 T00280017 10078 20028 53013 $
KHBG 092253Z AUTO 27004KT 10SM CLR 07/01 A3017 RMK AO2 SLP217 T00670006 $
KHBG 092153Z AUTO VRB06KT 10SM CLR 07/00 A3015 RMK AO2 SLP210 T00720000 $
KHBG 092053Z AUTO 27007KT 250V320 10SM CLR 07/00 A3015 RMK AO2 SLP209 T00720000 56016 $
KHBG 091953Z AUTO 26007KT 10SM CLR 06/M01 A3016 RMK AO2 SLP213 T00611006 $
KHBG 091853Z AUTO 27009KT 10SM CLR 06/M01 A3017 RMK AO2 SLP216 T00561006 $
KHBG 091753Z AUTO 28010KT 10SM CLR 04/00 A3020 RMK AO2 SLP225 T00440000 10044 21039 58002 $
KHBG 091653Z AUTO 28006KT 10SM CLR 03/M01 A3022 RMK AO2 SLP233 T00331006 $
KHBG 091553Z AUTO 26007KT 10SM CLR 02/M01 A3021 RMK AO2 SLP230 T00171011 $
KHBG 091453Z AUTO 00000KT 10SM CLR M01/M01 A3020 RMK AO2 SLP228 T10061011 51012 $
KHBG 091353Z AUTO 00000KT 8SM CLR M03/M03 A3019 RMK AO2 SLP223 T10281028 $
KHBG 091340Z AUTO 00000KT 3SM BR CLR M03/M03 A3019 RMK AO2 T10281028 $
KHBG 091324Z AUTO 00000KT 1 1/2SM BR CLR M03/M03 A3019 RMK AO2 T10281028
KHBG 091319Z AUTO 00000KT 5SM BR CLR M03/M03 A3019 RMK AO2 T10281028
KHBG 091312Z AUTO 00000KT 2SM BR CLR M03/M03 A3019 RMK AO2 T10331033
KHBG 091310Z AUTO 00000KT 3/4SM BR CLR M03/M03 A3019 RMK AO2 T10331033
KHBG 091253Z AUTO 00000KT 1/4SM FZFG VV002 M03/M04 A3019 RMK AO2 SLP223 T10331039
KHBG 091232Z AUTO 00000KT 1/4SM FZFG VV002 M04/M04 A3018 RMK AO2 T10391039
KHBG 091221Z AUTO 00000KT 1SM BR VV002 M03/M03 A3018 RMK AO2 T10331033
KHBG 091210Z AUTO 00000KT 3/4SM BR VV002 M03/M03 A3018 RMK AO2 T10331033
KHBG 091202Z AUTO 00000KT 1SM BR VV002 M03/M03 A3018 RMK AO2 VIS 1/2V5 T10331033
KHBG 091159Z AUTO 00000KT 2SM BR FEW002 M03/M03 A3017 RMK AO2 VIS 3/4V5 T10331033
KHBG 091153Z AUTO 00000KT 2SM BR CLR M03/M03 A3017 RMK AO2 VIS 1 1/4V4 SLP216 70027 T10281028 10006 21033 53011
KHBG 091053Z AUTO 00000KT 10SM CLR M02/M02 A3015 RMK AO2 SLP209 T10221022
KHBG 090953Z AUTO 31003KT 10SM CLR M02/M02 A3014 RMK AO2 SLP206 T10171022
KHBG 090853Z AUTO 30003KT 10SM CLR M01/M01 A3013 RMK AO2 SLP205 T10111011 50006
KHBG 090753Z AUTO 30005KT 10SM CLR 00/M01 A3014 RMK AO2 SLP207 T00001011
KHBG 090653Z AUTO 29006KT 10SM OVC120 01/00 A3013 RMK AO2 SLP204 T00060000
KHBG 090553Z AUTO 30004KT 10SM CLR 01/00 A3012 RMK AO2 SLP199 T00060000 10006 20000 400280000 50002
KHBG 090453Z AUTO 30007KT 9SM CLR 01/01 A3013 RMK AO2 SLP204 T00060006
KHBG 090353Z AUTO 31003KT 8SM CLR 00/00 A3011 RMK AO2 SLP197 T00000000
KHBG 090253Z AUTO 29003KT 9SM CLR 01/01 A3011 RMK AO2 SLP197 T00060006 53010
KHBG 090153Z AUTO 33005KT 10SM CLR 01/00 A3009 RMK AO2 SLP190 T00060000
KHBG 090053Z AUTO 33006KT 10SM CLR 01/00 A3009 RMK AO2 SLP191 T00060000
KHBG 090037Z AUTO 33005KT 10SM SCT011 SCT014 01/00 A3008 RMK AO2 T00060000
KHBG 082353Z AUTO 33005KT 10SM BKN010 BKN015 OVC041 01/00 A3008 RMK AO2 CIG 006V011 SLP187 P0001 60014 T00060000 10006 20000 53005
KHBG 082327Z AUTO 33007KT 10SM BKN008 BKN014 OVC100 01/01 A3005 RMK AO2 CIG 006V012 P0001 T00060006
KHBG 082316Z AUTO 33008KT 10SM BKN010 OVC100 01/00 A3005 RMK AO2 CIG 006V012 P0001 T00060000
KHBG 082253Z AUTO 35005KT 10SM BKN009 OVC110 01/01 A3003 RMK AO2 UPB2157E07 CIG 007V012 SLP170 P0002 T00060006
KHBG 082153Z AUTO 33006KT 8SM OVC009 01/01 A3006 RMK AO2 SNE49 CIG 005V011 SLP182 P0003 T00060006
KHBG 082137Z AUTO 34005KT 5SM -SN BR BKN008 BKN011 OVC043 01/01 A3006 RMK AO2 CIG 005V009 P0002 T00060006
KHBG 082126Z AUTO 33006KT 7SM -SN SCT007 BKN010 OVC043 01/01 A3007 RMK AO2 P0001 T00060006
KHBG 082102Z AUTO 32004KT 6SM -SN BR SCT007 BKN045 OVC065 01/01 A3007 RMK AO2 P0000 T00060006
KHBG 082053Z AUTO 32007KT 6SM -SN BR SCT007 BKN023 OVC070 01/01 A3007 RMK AO2 SLP182 P0003 60008 T00060006 53001
KHBG 082050Z AUTO 33006KT 6SM -SN BR SCT007 BKN023 OVC070 01/01 A3007 RMK AO2 P0003
KHBG 082041Z AUTO 35006KT 3SM -SN BR BKN005 BKN024 OVC065 01/01 A3005 RMK AO2 P0002 T00060006
KHBG 082008Z AUTO 32005KT 1 1/2SM -SN BR BKN006 OVC014 01/00 A3006 RMK AO2 P0001 T00060000
KHBG 082000Z AUTO 32004KT 3/4SM -SN BR BKN006 OVC014 01/01 A3006 RMK AO2 P0000 T00060006
KHBG 081953Z AUTO 00000KT 1SM -SN BR BKN006 OVC016 01/01 A3005 RMK AO2 SLP176 P0002 T00060006
KHBG 081934Z AUTO 01006KT 3/4SM -SN BR BKN006 OVC012 01/01 A3005 RMK AO2 PRESFR P0001 T00060006
KHBG 081925Z AUTO 36004KT 1SM -SN BR OVC006 01/01 A3006 RMK AO2 P0001 T00060006
KHBG 081853Z AUTO 35006KT 1/2SM SN FG OVC006 01/01 A3006 RMK AO2 SLP181 P0003 T00060006
KHBG 081834Z AUTO 33006KT 3/4SM -SN BR OVC006 01/01 A3008 RMK AO2 P0002 T00060006
KHBG 081825Z AUTO 31006KT 3/4SM -SN BR OVC004 00/00 A3009 RMK AO2 P0001 T00000000
KHBG 081800Z AUTO 35005KT 3/4SM -SN BR BKN005 OVC013 01/01 A3008 RMK AO2 P0000 T00060006
KHBG 081753Z AUTO 35006KT 1SM -SN BR BKN005 OVC015 01/01 A3009 RMK AO2 SLP189 P0003 60013 T00060006 10006 20000 58017
KHBG 081737Z AUTO 34005KT 1SM -SN BR BKN007 OVC015 01/01 A3011 RMK AO2 P0002 T00060006
KHBG 081724Z AUTO 33006KT 3/4SM -SN BR OVC009 01/01 A3011 RMK AO2 P0002 T00060006
KHBG 081713Z AUTO 33005KT 1 3/4SM -SN BR BKN007 OVC012 01/01 A3011 RMK AO2 P0001 T00060006
KHBG 081653Z AUTO 32006KT 7SM -SN BKN006 BKN012 OVC038 01/01 A3012 RMK AO2 RAB34E36 CIG 005V010 SLP199 P0004 T00060006
KHBG 081626Z AUTO VRB05KT 3SM -SN BR BKN005 BKN024 OVC039 01/01 A3011 RMK AO2 P0002 T00060006
KHBG 081553Z AUTO 31005KT 1 1/4SM -SN BR BKN006 OVC013 01/01 A3013 RMK AO2 SLP204 P0002 T00060006
KHBG 081549Z AUTO 34007KT 1SM -SN BR BKN007 OVC013 01/01 A3012 RMK AO2 P0002
KHBG 081538Z AUTO 34007KT 3/4SM -SN BR SCT007 OVC013 01/01 A3015 RMK AO2 P0002 T00060006
KHBG 081532Z AUTO 35006KT 1 3/4SM -SN BR BKN007 OVC018 01/01 A3013 RMK AO2 P0002 T00060006
KHBG 081501Z AUTO 33005KT 5SM -SN BR BKN005 OVC011 01/01 A3015 RMK AO2 P0001 T00060006
KHBG 081453Z AUTO 33005KT 2SM -SN BR BKN005 OVC011 01/01 A3014 RMK AO2 SLP206 P0001 60004 T00060006 50011
KHBG 081439Z AUTO 34007KT 1SM -SN BR OVC005 01/01 A3013 RMK AO2 P0001 T00060006
KHBG 081422Z AUTO 35006KT 3/4SM -SN BR VV005 00/00 A3014 RMK AO2 P0000 T00000000
KHBG 081409Z AUTO 35006KT 1/4SM +SN FG VV005 00/00 A3015 RMK AO2 P0000 T00000000
KHBG 081353Z AUTO 32005KT 1/2SM SN FG VV006 00/00 A3017 RMK AO2 SLP217 P0002 T00000000
KHBG 081350Z AUTO 32005KT 1/2SM SN FG VV007 00/00 A3017 RMK AO2 P0002
KHBG 081336Z AUTO 28007KT 1/4SM +SN FG VV006 00/00 A3019 RMK AO2 PRESRR P0001 T00000000
KHBG 081253Z AUTO 35007KT 1 3/4SM -SN BR BKN005 OVC011 01/01 A3011 RMK AO2 SLP195 P0001 T00060006
KHBG 081243Z AUTO 36006KT 2SM -SN BR BKN006 OVC011 01/01 A3011 RMK AO2 P0001 T00060006
KHBG 081153Z AUTO 32006KT 1 1/4SM -SN BR OVC005 01/01 A3014 RMK AO2 SLP207 P0003 60022 70062 T00060006 10033 20006 51014
KHBG 081135Z AUTO 35006KT 2 1/2SM -SN BR OVC006 01/01 A3013 RMK AO2 P0002 T00060006
KHBG 081102Z AUTO 36007KT 1 3/4SM -SN BR OVC006 01/01 A3012 RMK AO2 CIG 004V009 PRESFR P0000 T00060006
KHBG 081053Z AUTO 33008KT 4SM -SN BR OVC006 01/01 A3016 RMK AO2 RAE45SNB45 SLP213 P0004 T00110011
KHBG 080953Z AUTO 36007KT 10SM -RA OVC006 02/02 A3010 RMK AO2 CIG 004V010 PRESFR SLP194 P0005 T00170017
KHBG 080853Z AUTO 34006KT 10SM -RA OVC007 02/02 A3014 RMK AO2 SLP206 P0005 60010 T00220022 56020
KHBG 080753Z AUTO 36007KT 10SM -RA BKN007 OVC048 02/02 A3014 RMK AO2 SLP208 P0004 T00220022
KHBG 080653Z AUTO 35005KT 10SM -RA BKN007 OVC011 03/03 A3018 RMK AO2 UPB35E38 SLP219 P0001 T00280028
KHBG 080553Z AUTO 36009KT 7SM -RA BKN009 OVC043 03/03 A3020 RMK AO2 SLP226 P0002 60005 T00330028 10050 20033 400720033 56002
KHBG 080537Z AUTO 35006KT 8SM RA BKN009 OVC035 03/03 A3021 RMK AO2 P0002 T00330028
KHBG 080516Z AUTO 34007KT 10SM -RA BKN010 OVC050 03/03 A3020 RMK AO2 P0001 T00330033
KHBG 080453Z AUTO 35008KT 10SM -RA SCT012 OVC050 03/03 A3020 RMK AO2 SLP225 P0001 T00330033
KHBG 080427Z AUTO 35010KT 9SM -RA SCT008 BKN015 OVC055 04/03 A3019 RMK AO2 P0001 T00390033